Time;durP1;ratioP1;P1;durP2;ratioP2;P2;SDS_P1;SDS_P2;PMS_P1;PMS_P2;Temp;Humidity;BMP_temperature;BMP_pressure;BME280_temperature;BME280_humidity;BME280_pressure;Samples;Min_cycle;Max_cycle;Signal;HPM_P1;HPM_P2
2022/08/05 00:01:31;;;;;;;24.40;13.70;;;;;;;;;;5095829;28;20495;-70
2022/08/05 00:03:58;;;;;;;22.83;13.37;;;;;;;;;;5095750;28;20459;-70
2022/08/05 00:06:25;;;;;;;27.67;13.80;;;;;;;;;;5096132;28;20578;-70
2022/08/05 00:08:52;;;;;;;24.23;14.77;;;;;;;;;;5095744;28;20896;-70
2022/08/05 00:11:19;;;;;;;19.10;12.20;;;;;;;;;;5096068;28;20517;-70
2022/08/05 00:13:46;;;;;;;25.50;13.43;;;;;;;;;;5094957;28;20487;-70
2022/08/05 00:16:15;;;;;;;23.17;13.30;;;;;;;;;;5096984;28;20450;-69
2022/08/05 00:18:45;;;;;;;26.77;12.80;;;;;;;;;;5095185;28;20483;-69
2022/08/05 00:21:13;;;;;;;25.30;15.13;;;;;;;;;;5094509;28;20448;-70
2022/08/05 00:23:40;;;;;;;30.37;14.67;;;;;;;;;;5094150;28;20456;-69
2022/08/05 00:26:07;;;;;;;27.20;14.67;;;;;;;;;;5095197;28;20448;-69
2022/08/05 00:28:37;;;;;;;33.07;14.00;;;;;;;;;;5095964;28;20439;-69
2022/08/05 00:31:04;;;;;;;26.23;14.80;;;;;;;;;;5095146;28;20601;-70
2022/08/05 00:33:32;;;;;;;20.93;14.17;;;;;;;;;;5095766;28;20493;-69
2022/08/05 00:35:59;;;;;;;28.93;14.17;;;;;;;;;;5095300;28;20455;-70
2022/08/05 00:38:26;;;;;;;24.33;14.53;;;;;;;;;;5095868;28;20448;-69
2022/08/05 00:40:54;;;;;;;24.70;14.33;;;;;;;;;;5095785;28;20557;-69
2022/08/05 00:43:22;;;;;;;28.40;17.57;;;;;;;;;;5095672;28;20886;-70
2022/08/05 00:45:49;;;;;;;23.80;16.30;;;;;;;;;;5095156;28;20793;-69
2022/08/05 00:48:18;;;;;;;24.70;16.27;;;;;;;;;;5094553;28;21018;-69
2022/08/05 00:50:47;;;;;;;28.10;14.80;;;;;;;;;;5093941;28;20456;-69
2022/08/05 00:53:15;;;;;;;33.80;15.20;;;;;;;;;;5094623;28;20492;-69
2022/08/05 00:55:42;;;;;;;26.40;13.87;;;;;;;;;;5094434;28;20468;-69
2022/08/05 00:58:09;;;;;;;19.93;13.13;;;;;;;;;;5094573;28;20452;-70
2022/08/05 01:00:36;;;;;;;26.07;14.57;;;;;;;;;;5094992;28;20751;-69
2022/08/05 01:03:03;;;;;;;22.20;13.37;;;;;;;;;;5094539;28;20463;-69
2022/08/05 01:05:33;;;;;;;28.13;12.80;;;;;;;;;;5094306;28;20504;-69
2022/08/05 01:08:01;;;;;;;26.47;12.13;;;;;;;;;;5095064;28;20447;-69
2022/08/05 01:10:29;;;;;;;19.33;10.40;;;;;;;;;;5094680;28;20466;-70
2022/08/05 01:12:58;;;;;;;23.80;12.50;;;;;;;;;;5094566;28;20493;-69
2022/08/05 01:15:29;;;;;;;22.60;10.20;;;;;;;;;;5094228;28;20444;-69
2022/08/05 01:18:01;;;;;;;18.87;10.70;;;;;;;;;;5094125;28;20928;-70
2022/08/05 01:20:31;;;;;;;15.10;9.07;;;;;;;;;;5094134;28;20447;-69
2022/08/05 01:23:02;;;;;;;11.00;8.10;;;;;;;;;;5094406;28;20843;-70
2022/08/05 01:25:44;;;;;;;16.10;9.00;;;;;;;;;;5094244;28;20481;-69
2022/08/05 01:28:16;;;;;;;15.87;7.87;;;;;;;;;;5091985;28;20883;-69
2022/08/05 01:30:45;;;;;;;14.27;7.40;;;;;;;;;;5094127;28;20491;-69
2022/08/05 01:33:13;;;;;;;12.83;7.40;;;;;;;;;;5093798;28;20494;-69
2022/08/05 01:35:44;;;;;;;15.00;8.17;;;;;;;;;;5098034;28;20458;-70
2022/08/05 01:38:12;;;;;;;12.87;6.47;;;;;;;;;;5098368;28;20451;-69
2022/08/05 01:40:39;;;;;;;12.00;6.30;;;;;;;;;;5098056;28;20516;-69
2022/08/05 01:43:07;;;;;;;17.07;6.97;;;;;;;;;;5097576;28;20455;-70
2022/08/05 01:45:36;;;;;;;10.43;6.50;;;;;;;;;;5097717;28;20443;-69
2022/08/05 01:48:03;;;;;;;8.37;5.60;;;;;;;;;;5097772;28;20454;-69
2022/08/05 01:50:36;;;;;;;7.20;5.13;;;;;;;;;;5097684;28;20848;-69
2022/08/05 01:53:04;;;;;;;10.80;5.93;;;;;;;;;;5096983;28;20504;-69
2022/08/05 01:55:33;;;;;;;10.80;5.70;;;;;;;;;;5097627;28;20446;-69
2022/08/05 01:58:01;;;;;;;8.17;4.60;;;;;;;;;;5097755;28;20479;-70
2022/08/05 02:00:29;;;;;;;10.03;5.10;;;;;;;;;;5097208;28;20447;-69
2022/08/05 02:02:59;;;;;;;7.53;4.53;;;;;;;;;;5097080;28;20468;-69
2022/08/05 02:05:31;;;;;;;8.50;5.70;;;;;;;;;;5097163;28;20859;-71
2022/08/05 02:07:59;;;;;;;8.40;5.60;;;;;;;;;;5097589;28;20720;-69
2022/08/05 02:10:26;;;;;;;10.17;4.83;;;;;;;;;;5097674;28;20448;-69
2022/08/05 02:12:54;;;;;;;8.50;5.20;;;;;;;;;;5097724;28;20487;-69
2022/08/05 02:15:24;;;;;;;11.20;5.10;;;;;;;;;;5097177;28;20448;-69
2022/08/05 02:17:52;;;;;;;10.13;4.83;;;;;;;;;;5097344;28;20542;-70
2022/08/05 02:20:22;;;;;;;8.27;5.40;;;;;;;;;;5097411;28;20452;-70
2022/08/05 02:22:55;;;;;;;9.57;5.70;;;;;;;;;;5097045;28;20719;-70
2022/08/05 02:25:26;;;;;;;8.47;5.13;;;;;;;;;;5097516;28;20452;-69
2022/08/05 02:27:55;;;;;;;9.53;6.00;;;;;;;;;;5097165;28;20798;-69
2022/08/05 02:30:23;;;;;;;10.90;6.30;;;;;;;;;;5096666;28;20447;-70
2022/08/05 02:32:51;;;;;;;9.17;6.90;;;;;;;;;;5097076;28;20490;-69
2022/08/05 02:35:20;;;;;;;7.80;4.90;;;;;;;;;;5096725;28;20543;-69
2022/08/05 02:37:48;;;;;;;10.57;5.10;;;;;;;;;;5096569;28;20460;-70
2022/08/05 02:40:16;;;;;;;11.00;5.17;;;;;;;;;;5096908;28;20447;-69
2022/08/05 02:42:43;;;;;;;9.77;5.27;;;;;;;;;;5097329;28;20454;-69
2022/08/05 02:45:11;;;;;;;8.17;6.50;;;;;;;;;;5095560;28;20459;-69
2022/08/05 02:47:38;;;;;;;8.83;5.67;;;;;;;;;;5096257;28;20455;-70
2022/08/05 02:50:06;;;;;;;9.57;5.93;;;;;;;;;;5096712;28;20738;-70
2022/08/05 02:52:33;;;;;;;13.83;5.37;;;;;;;;;;5096291;28;20456;-69
2022/08/05 02:55:05;;;;;;;10.07;5.90;;;;;;;;;;5096271;28;20846;-70
2022/08/05 02:57:33;;;;;;;8.73;5.30;;;;;;;;;;5096259;28;20470;-70
2022/08/05 03:00:00;;;;;;;9.90;5.80;;;;;;;;;;5097167;28;20517;-69
2022/08/05 03:02:28;;;;;;;9.87;5.20;;;;;;;;;;5096259;28;20456;-69
2022/08/05 03:04:57;;;;;;;11.13;5.60;;;;;;;;;;5096056;28;20455;-69
2022/08/05 03:07:25;;;;;;;11.27;5.13;;;;;;;;;;5095979;28;20443;-69
2022/08/05 03:09:56;;;;;;;8.60;4.67;;;;;;;;;;5096424;28;20537;-69
2022/08/05 03:12:33;;;;;;;11.60;7.17;;;;;;;;;;5095769;28;20459;-70
2022/08/05 03:15:00;;;;;;;10.30;5.53;;;;;;;;;;5095771;28;21092;-69
2022/08/05 03:17:27;;;;;;;8.37;5.57;;;;;;;;;;5095579;28;20527;-69
2022/08/05 03:19:54;;;;;;;9.67;7.30;;;;;;;;;;5096190;28;20473;-69
2022/08/05 03:22:21;;;;;;;12.03;6.00;;;;;;;;;;5095654;28;20471;-69
2022/08/05 03:24:49;;;;;;;10.30;5.70;;;;;;;;;;5106632;28;20893;-69
2022/08/05 03:27:16;;;;;;;8.73;5.43;;;;;;;;;;5104081;28;20554;-69
2022/08/05 03:29:44;;;;;;;13.20;6.83;;;;;;;;;;5096877;28;20516;-69
2022/08/05 03:32:11;;;;;;;13.27;6.77;;;;;;;;;;5095880;28;20479;-68
2022/08/05 03:34:38;;;;;;;10.60;6.33;;;;;;;;;;5096419;28;20487;-68
2022/08/05 03:37:06;;;;;;;19.20;7.73;;;;;;;;;;5082001;28;20457;-69
2022/08/05 03:39:33;;;;;;;9.80;5.40;;;;;;;;;;5075408;28;20529;-68
2022/08/05 03:42:00;;;;;;;8.97;6.80;;;;;;;;;;5075587;28;20821;-69
2022/08/05 03:44:27;;;;;;;12.10;6.80;;;;;;;;;;5075933;28;20460;-69
2022/08/05 03:46:55;;;;;;;13.50;6.87;;;;;;;;;;5076104;28;20544;-69
2022/08/05 03:49:22;;;;;;;8.60;6.47;;;;;;;;;;5075242;28;20471;-69
2022/08/05 03:51:54;;;;;;;9.30;5.63;;;;;;;;;;5075555;28;20445;-69
2022/08/05 03:54:24;;;;;;;13.20;8.00;;;;;;;;;;5075439;28;20488;-69
2022/08/05 03:56:54;;;;;;;10.17;6.40;;;;;;;;;;5075381;28;20508;-69
2022/08/05 03:59:28;;;;;;;7.93;6.37;;;;;;;;;;5074461;28;20534;-70
2022/08/05 04:02:03;;;;;;;14.60;6.50;;;;;;;;;;5073862;28;20480;-70
2022/08/05 04:04:35;;;;;;;13.50;7.33;;;;;;;;;;5081992;28;20486;-70
2022/08/05 04:07:02;;;;;;;11.73;6.53;;;;;;;;;;5090288;28;20555;-69
2022/08/05 04:09:29;;;;;;;11.50;6.00;;;;;;;;;;5095173;28;20454;-69
2022/08/05 04:11:57;;;;;;;16.17;7.73;;;;;;;;;;5095571;28;20472;-69
2022/08/05 04:14:25;;;;;;;13.23;6.80;;;;;;;;;;5095284;28;20506;-69
2022/08/05 04:16:52;;;;;;;14.27;6.20;;;;;;;;;;5094721;28;20722;-69
2022/08/05 04:19:19;;;;;;;13.63;7.90;;;;;;;;;;5094663;28;20509;-69
2022/08/05 04:21:46;;;;;;;12.30;7.43;;;;;;;;;;5095074;28;20935;-69
2022/08/05 04:24:14;;;;;;;7.43;5.90;;;;;;;;;;5098162;28;21228;-69
2022/08/05 04:26:41;;;;;;;11.40;6.30;;;;;;;;;;5115460;27;20458;-69
2022/08/05 04:29:08;;;;;;;11.60;6.70;;;;;;;;;;5115574;27;20623;-69
2022/08/05 04:31:35;;;;;;;10.30;6.60;;;;;;;;;;5115701;27;20497;-69
2022/08/05 04:34:02;;;;;;;10.10;6.70;;;;;;;;;;5115173;27;20926;-69
2022/08/05 04:36:30;;;;;;;8.30;4.90;;;;;;;;;;5115609;27;20450;-69
2022/08/05 04:38:57;;;;;;;8.50;5.50;;;;;;;;;;5115051;27;20498;-69
2022/08/05 04:41:24;;;;;;;10.70;6.10;;;;;;;;;;5114714;27;20465;-69
2022/08/05 04:43:51;;;;;;;8.50;5.37;;;;;;;;;;5114819;27;20455;-69
2022/08/05 04:46:18;;;;;;;9.00;5.83;;;;;;;;;;5116789;27;20584;-68
2022/08/05 04:48:45;;;;;;;10.77;6.27;;;;;;;;;;5115188;27;20545;-70
2022/08/05 04:51:12;;;;;;;13.63;5.80;;;;;;;;;;5115182;27;20485;-70
2022/08/05 04:53:40;;;;;;;6.73;5.00;;;;;;;;;;5114607;27;20496;-70
2022/08/05 04:56:07;;;;;;;6.70;5.23;;;;;;;;;;5115150;27;20465;-70
2022/08/05 04:58:34;;;;;;;4.90;4.40;;;;;;;;;;5115008;27;20519;-70
2022/08/05 05:01:01;;;;;;;6.37;5.27;;;;;;;;;;5115143;27;20446;-70
2022/08/05 05:03:28;;;;;;;9.27;6.17;;;;;;;;;;5114997;27;20458;-69
2022/08/05 05:05:55;;;;;;;6.20;5.30;;;;;;;;;;5114543;27;20449;-69
2022/08/05 05:08:22;;;;;;;9.13;5.90;;;;;;;;;;5114854;27;20462;-70
2022/08/05 05:10:49;;;;;;;6.23;3.90;;;;;;;;;;5118780;27;20451;-69
2022/08/05 05:13:17;;;;;;;10.43;3.90;;;;;;;;;;5119141;27;20551;-69
2022/08/05 05:15:45;;;;;;;5.20;3.73;;;;;;;;;;5117667;27;20434;-70
2022/08/05 05:18:14;;;;;;;6.80;4.80;;;;;;;;;;5118187;27;20709;-71
2022/08/05 05:20:42;;;;;;;5.60;3.93;;;;;;;;;;5117923;27;20538;-69
2022/08/05 05:23:09;;;;;;;5.07;4.07;;;;;;;;;;5117555;27;20501;-70
2022/08/05 05:25:40;;;;;;;8.27;5.50;;;;;;;;;;5116775;27;20553;-69
2022/08/05 05:28:08;;;;;;;7.17;4.70;;;;;;;;;;5117376;27;20485;-70
2022/08/05 05:30:36;;;;;;;5.73;3.87;;;;;;;;;;5116723;27;20469;-70
2022/08/05 05:33:05;;;;;;;7.90;4.30;;;;;;;;;;5117173;27;20509;-70
2022/08/05 05:35:33;;;;;;;6.17;4.27;;;;;;;;;;5117618;27;20443;-70
2022/08/05 05:38:01;;;;;;;6.90;4.27;;;;;;;;;;5118228;27;20467;-69
2022/08/05 05:40:29;;;;;;;4.57;3.20;;;;;;;;;;5104326;28;20963;-70
2022/08/05 05:42:59;;;;;;;4.80;3.33;;;;;;;;;;5097124;28;20964;-70
2022/08/05 05:45:37;;;;;;;5.17;3.60;;;;;;;;;;5096670;28;20542;-70
2022/08/05 05:48:06;;;;;;;4.63;2.97;;;;;;;;;;5097227;28;20495;-70
2022/08/05 05:50:33;;;;;;;7.93;4.20;;;;;;;;;;5096630;28;20460;-70
2022/08/05 05:53:00;;;;;;;9.83;3.17;;;;;;;;;;5096069;28;20946;-70
2022/08/05 05:55:27;;;;;;;4.27;3.00;;;;;;;;;;5096282;28;20550;-70
2022/08/05 05:57:54;;;;;;;5.73;3.10;;;;;;;;;;5097101;28;20890;-70
2022/08/05 06:00:22;;;;;;;5.40;3.50;;;;;;;;;;5096460;28;20493;-69
2022/08/05 06:02:50;;;;;;;5.50;3.40;;;;;;;;;;5093965;28;20459;-70
2022/08/05 06:05:17;;;;;;;6.73;3.03;;;;;;;;;;5095901;28;20458;-69
2022/08/05 06:07:45;;;;;;;7.63;3.57;;;;;;;;;;5093984;28;20490;-71
2022/08/05 06:10:12;;;;;;;5.63;2.90;;;;;;;;;;5095241;28;20456;-70
2022/08/05 06:12:40;;;;;;;13.80;4.97;;;;;;;;;;5095470;28;20539;-70
2022/08/05 06:15:07;;;;;;;11.37;4.57;;;;;;;;;;5094242;28;20455;-69
2022/08/05 06:17:35;;;;;;;10.07;4.40;;;;;;;;;;5095398;28;20458;-69
2022/08/05 06:20:03;;;;;;;8.33;3.43;;;;;;;;;;5094888;28;20600;-69
2022/08/05 06:22:31;;;;;;;3.87;2.80;;;;;;;;;;5095908;28;20455;-69
2022/08/05 06:24:59;;;;;;;7.47;3.03;;;;;;;;;;5096708;28;20558;-69
2022/08/05 06:27:26;;;;;;;4.53;2.67;;;;;;;;;;5096382;28;20501;-70
2022/08/05 06:29:56;;;;;;;8.93;4.20;;;;;;;;;;5094814;28;20462;-69
2022/08/05 06:32:23;;;;;;;5.97;2.70;;;;;;;;;;5095584;28;20443;-68
2022/08/05 06:34:50;;;;;;;10.40;2.80;;;;;;;;;;5094668;28;20488;-68
2022/08/05 06:37:18;;;;;;;6.27;2.90;;;;;;;;;;5095987;28;20715;-68
2022/08/05 06:39:45;;;;;;;5.50;2.83;;;;;;;;;;5095054;28;20486;-69
2022/08/05 06:42:15;;;;;;;7.87;3.10;;;;;;;;;;5095318;28;20963;-69
2022/08/05 06:44:45;;;;;;;8.77;3.20;;;;;;;;;;5096087;28;20886;-69
2022/08/05 06:47:12;;;;;;;16.10;5.40;;;;;;;;;;5100239;28;20459;-69
2022/08/05 06:49:39;;;;;;;9.50;3.40;;;;;;;;;;5094737;28;20570;-69
2022/08/05 06:52:06;;;;;;;6.33;2.87;;;;;;;;;;5095457;28;21152;-70
2022/08/05 06:54:34;;;;;;;9.23;3.90;;;;;;;;;;5106577;27;20849;-70
2022/08/05 06:57:01;;;;;;;5.40;2.67;;;;;;;;;;5115598;27;20547;-68
2022/08/05 06:59:28;;;;;;;7.50;2.83;;;;;;;;;;5095596;28;20459;-70
2022/08/05 07:01:55;;;;;;;16.73;3.80;;;;;;;;;;5094954;28;20999;-69
2022/08/05 07:04:22;;;;;;;7.33;3.13;;;;;;;;;;5095189;28;20516;-69
2022/08/05 07:06:49;;;;;;;6.33;3.70;;;;;;;;;;5094912;28;21101;-70
2022/08/05 07:09:16;;;;;;;8.40;2.97;;;;;;;;;;5076947;28;21071;-70
2022/08/05 07:11:44;;;;;;;8.07;3.23;;;;;;;;;;5074358;28;20456;-69
2022/08/05 07:17:00;;;;;;;7.57;3.67;;;;;;;;;;5074642;28;20471;-70
2022/08/05 07:19:29;;;;;;;6.40;2.93;;;;;;;;;;5072944;28;20448;-69
2022/08/05 07:21:57;;;;;;;5.37;3.33;;;;;;;;;;5091976;28;20467;-69
2022/08/05 07:24:27;;;;;;;14.50;3.83;;;;;;;;;;5078481;28;21007;-70
2022/08/05 07:27:02;;;;;;;6.13;3.37;;;;;;;;;;5073924;28;20460;-69
2022/08/05 07:29:30;;;;;;;4.00;3.03;;;;;;;;;;5074573;28;20448;-70
2022/08/05 07:31:57;;;;;;;6.53;2.90;;;;;;;;;;5073105;28;20513;-70
2022/08/05 07:34:25;;;;;;;4.77;2.63;;;;;;;;;;5073839;28;20488;-69
2022/08/05 07:36:52;;;;;;;5.13;3.13;;;;;;;;;;5073674;28;20531;-70
2022/08/05 07:39:19;;;;;;;5.57;3.00;;;;;;;;;;5074328;28;20718;-69
2022/08/05 07:41:46;;;;;;;5.60;3.53;;;;;;;;;;5074379;28;20892;-70
2022/08/05 07:44:17;;;;;;;5.03;3.33;;;;;;;;;;5074656;28;20760;-69
2022/08/05 07:46:47;;;;;;;4.90;3.00;;;;;;;;;;5074654;28;20578;-70
2022/08/05 07:49:16;;;;;;;4.50;3.30;;;;;;;;;;5075328;28;20476;-69
2022/08/05 07:51:45;;;;;;;5.27;3.60;;;;;;;;;;5073336;28;20445;-69
2022/08/05 07:54:12;;;;;;;5.70;3.77;;;;;;;;;;5073384;28;20488;-71
2022/08/05 07:56:39;;;;;;;7.03;4.43;;;;;;;;;;5073629;28;20445;-70
2022/08/05 07:59:09;;;;;;;5.00;4.13;;;;;;;;;;5081984;28;20475;-67
2022/08/05 08:01:40;;;;;;;6.60;3.83;;;;;;;;;;5094899;28;20845;-69
2022/08/05 08:04:07;;;;;;;7.17;3.70;;;;;;;;;;5088174;28;20479;-69
2022/08/05 08:06:34;;;;;;;9.40;4.97;;;;;;;;;;5073934;28;20873;-69
2022/08/05 08:09:02;;;;;;;10.40;4.57;;;;;;;;;;5072422;28;20663;-70
2022/08/05 08:11:29;;;;;;;6.73;5.13;;;;;;;;;;5072697;28;20872;-69
2022/08/05 08:13:56;;;;;;;5.83;4.10;;;;;;;;;;5072628;28;20500;-70
2022/08/05 08:16:23;;;;;;;9.50;4.20;;;;;;;;;;5071777;28;20460;-70
2022/08/05 08:18:51;;;;;;;7.87;5.20;;;;;;;;;;5073476;28;20532;-68
2022/08/05 08:21:18;;;;;;;10.83;5.23;;;;;;;;;;5084286;28;20776;-69
2022/08/05 08:23:45;;;;;;;6.90;4.47;;;;;;;;;;5072634;28;20907;-69
2022/08/05 08:26:16;;;;;;;7.73;4.43;;;;;;;;;;5071921;28;20472;-70
2022/08/05 08:28:43;;;;;;;9.00;4.80;;;;;;;;;;5071508;28;20745;-70
2022/08/05 08:31:10;;;;;;;6.90;4.90;;;;;;;;;;5075511;28;20530;-70
2022/08/05 08:33:37;;;;;;;6.27;4.37;;;;;;;;;;5094055;28;20553;-68
2022/08/05 08:36:09;;;;;;;6.47;4.90;;;;;;;;;;5092894;28;20913;-70
2022/08/05 08:38:40;;;;;;;8.90;5.20;;;;;;;;;;5092741;28;20467;-69
2022/08/05 08:41:07;;;;;;;8.03;4.63;;;;;;;;;;5093236;28;20458;-70
2022/08/05 08:43:37;;;;;;;8.40;4.70;;;;;;;;;;5090359;28;20699;-69
2022/08/05 08:46:06;;;;;;;10.00;5.67;;;;;;;;;;5093801;28;20452;-69
2022/08/05 08:48:35;;;;;;;11.03;6.60;;;;;;;;;;5092096;28;20450;-69
2022/08/05 08:51:06;;;;;;;5.63;5.03;;;;;;;;;;5091017;28;20508;-70
2022/08/05 08:53:36;;;;;;;11.67;6.53;;;;;;;;;;5088336;28;20484;-69
2022/08/05 08:56:04;;;;;;;7.60;5.77;;;;;;;;;;5092975;28;20470;-69
2022/08/05 08:58:34;;;;;;;8.40;6.27;;;;;;;;;;5092301;28;20492;-68
2022/08/05 09:01:01;;;;;;;10.77;5.83;;;;;;;;;;5091924;28;20903;-69
2022/08/05 09:03:28;;;;;;;6.20;5.40;;;;;;;;;;5106937;27;20450;-69
2022/08/05 09:05:55;;;;;;;8.43;5.60;;;;;;;;;;5113320;27;20450;-69
2022/08/05 09:08:24;;;;;;;10.03;5.67;;;;;;;;;;5110121;27;20449;-69
2022/08/05 09:10:52;;;;;;;11.70;5.63;;;;;;;;;;5088857;28;21008;-68
2022/08/05 09:13:19;;;;;;;8.47;4.60;;;;;;;;;;5094114;28;20544;-69
2022/08/05 09:15:48;;;;;;;8.27;5.43;;;;;;;;;;5090410;28;20864;-69
2022/08/05 09:18:19;;;;;;;5.33;4.77;;;;;;;;;;5071954;28;20463;-69
2022/08/05 09:20:50;;;;;;;7.93;5.00;;;;;;;;;;5081450;28;20867;-70
2022/08/05 09:23:19;;;;;;;7.27;4.73;;;;;;;;;;5098704;28;20451;-69
2022/08/05 09:25:49;;;;;;;6.77;4.90;;;;;;;;;;5107902;28;20517;-69
2022/08/05 09:28:37;;;;;;;14.20;5.77;;;;;;;;;;5113252;28;20531;-69
2022/08/05 09:31:06;;;;;;;8.10;5.20;;;;;;;;;;5111109;27;20455;-68
2022/08/05 09:33:46;;;;;;;8.80;5.10;;;;;;;;;;5104666;27;20530;-69
2022/08/05 09:36:14;;;;;;;7.47;6.30;;;;;;;;;;5092187;28;20713;-69
2022/08/05 09:38:55;;;;;;;6.40;5.23;;;;;;;;;;5092745;28;20443;-70
2022/08/05 09:41:22;;;;;;;14.93;6.13;;;;;;;;;;5092026;28;20460;-69
2022/08/05 09:43:49;;;;;;;7.40;6.00;;;;;;;;;;5091776;28;20561;-69
2022/08/05 09:46:27;;;;;;;7.30;5.10;;;;;;;;;;5072175;28;20521;-69
2022/08/05 09:48:54;;;;;;;6.47;4.90;;;;;;;;;;5080371;28;20463;-68
2022/08/05 09:52:07;;;;;;;9.70;4.00;;;;;;;;;;5091835;28;20530;-69
2022/08/05 09:54:35;;;;;;;4.30;3.67;;;;;;;;;;5083642;28;20495;-68
2022/08/05 09:57:02;;;;;;;7.23;3.20;;;;;;;;;;5088998;27;20435;-68
2022/08/05 09:59:30;;;;;;;4.93;3.30;;;;;;;;;;5111101;27;20958;-69
2022/08/05 10:01:57;;;;;;;9.23;4.07;;;;;;;;;;5093420;27;20581;-69
2022/08/05 10:04:35;;;;;;;14.57;4.37;;;;;;;;;;5094329;28;20490;-70
2022/08/05 10:07:03;;;;;;;6.83;3.43;;;;;;;;;;5091630;28;20550;-70
2022/08/05 10:09:31;;;;;;;9.13;3.60;;;;;;;;;;5093930;28;20464;-69
2022/08/05 10:12:08;;;;;;;13.97;5.93;;;;;;;;;;5094606;28;20882;-69
2022/08/05 10:14:35;;;;;;;5.10;2.40;;;;;;;;;;5091374;28;20869;-69
2022/08/05 10:17:12;;;;;;;3.70;2.33;;;;;;;;;;5098874;27;20969;-70
2022/08/05 10:19:39;;;;;;;7.63;3.80;;;;;;;;;;5089045;28;20474;-70
2022/08/05 10:22:07;;;;;;;5.00;2.70;;;;;;;;;;5089236;28;21031;-70
2022/08/05 10:24:34;;;;;;;6.93;2.83;;;;;;;;;;5094507;28;20895;-69
2022/08/05 10:27:01;;;;;;;4.00;2.97;;;;;;;;;;5093985;28;20440;-69
2022/08/05 10:29:32;;;;;;;8.20;2.60;;;;;;;;;;5094634;28;20470;-69
2022/08/05 10:31:59;;;;;;;8.33;3.10;;;;;;;;;;5094174;28;20440;-68
2022/08/05 10:34:28;;;;;;;15.30;3.63;;;;;;;;;;5093920;28;20567;-69
2022/08/05 10:36:55;;;;;;;4.53;2.13;;;;;;;;;;5093723;28;20883;-69
2022/08/05 10:39:25;;;;;;;5.97;2.70;;;;;;;;;;5093055;28;20455;-68
2022/08/05 10:41:56;;;;;;;3.53;2.40;;;;;;;;;;5092919;28;21042;-70
2022/08/05 10:44:24;;;;;;;6.57;3.27;;;;;;;;;;5094282;28;20932;-70
2022/08/05 10:46:55;;;;;;;9.10;3.57;;;;;;;;;;5092873;28;20459;-70
2022/08/05 10:49:22;;;;;;;4.07;3.23;;;;;;;;;;5095124;28;20485;-71
2022/08/05 10:52:01;;;;;;;5.20;3.80;;;;;;;;;;5094115;28;20868;-70
2022/08/05 10:54:43;;;;;;;5.37;4.00;;;;;;;;;;5091973;28;20526;-70
2022/08/05 10:57:12;;;;;;;6.50;4.00;;;;;;;;;;5093458;28;20496;-69
2022/08/05 10:59:39;;;;;;;5.90;4.50;;;;;;;;;;5093728;28;20458;-69
2022/08/05 11:02:07;;;;;;;4.63;4.13;;;;;;;;;;5094759;28;20448;-69
2022/08/05 11:04:42;;;;;;;7.30;4.00;;;;;;;;;;5092570;28;20449;-69
2022/08/05 11:07:19;;;;;;;4.90;4.17;;;;;;;;;;5090408;28;20554;-70
2022/08/05 11:09:48;;;;;;;6.50;3.93;;;;;;;;;;5085583;28;20978;-69
2022/08/05 11:12:33;;;;;;;6.77;4.00;;;;;;;;;;5081871;28;20524;-69
2022/08/05 11:15:07;;;;;;;6.53;4.57;;;;;;;;;;5093968;28;20487;-69
2022/08/05 11:17:37;;;;;;;6.13;4.10;;;;;;;;;;5093546;28;20530;-70
2022/08/05 11:20:04;;;;;;;5.30;4.30;;;;;;;;;;5091607;28;20472;-69
2022/08/05 11:22:39;;;;;;;5.70;4.30;;;;;;;;;;5093953;28;20501;-70
2022/08/05 11:25:25;;;;;;;6.00;5.03;;;;;;;;;;5074528;28;20495;-69
2022/08/05 11:27:53;;;;;;;6.87;4.90;;;;;;;;;;5080365;28;20456;-69
2022/08/05 11:30:20;;;;;;;8.10;5.20;;;;;;;;;;5093805;28;20743;-69
2022/08/05 11:32:47;;;;;;;6.57;5.20;;;;;;;;;;5104518;27;20443;-69
2022/08/05 11:35:32;;;;;;;6.97;5.30;;;;;;;;;;5112876;27;20482;-69
2022/08/05 11:38:02;;;;;;;8.73;4.13;;;;;;;;;;5105119;27;20548;-69
2022/08/05 11:40:51;;;;;;;4.47;4.03;;;;;;;;;;5093592;28;20482;-69
2022/08/05 11:43:24;;;;;;;6.00;4.60;;;;;;;;;;5092518;28;20626;-69
2022/08/05 11:45:52;;;;;;;5.67;4.10;;;;;;;;;;5094162;28;20455;-69
2022/08/05 11:48:19;;;;;;;5.70;4.60;;;;;;;;;;5094030;28;20447;-71
2022/08/05 11:50:48;;;;;;;5.07;3.80;;;;;;;;;;5092500;28;20464;-69
2022/08/05 11:53:17;;;;;;;8.60;4.17;;;;;;;;;;5103746;28;20562;-70
2022/08/05 11:55:55;;;;;;;5.43;3.67;;;;;;;;;;5073207;28;20460;-71
2022/08/05 11:58:30;;;;;;;6.80;3.93;;;;;;;;;;5072961;28;20535;-71
2022/08/05 12:01:06;;;;;;;6.03;3.80;;;;;;;;;;5071743;28;20535;-70
2022/08/05 12:03:41;;;;;;;5.70;4.83;;;;;;;;;;5075340;28;20451;-70
2022/08/05 12:06:11;;;;;;;6.40;4.90;;;;;;;;;;5090249;28;20760;-70
2022/08/05 12:08:43;;;;;;;5.83;5.23;;;;;;;;;;5090214;28;20448;-71
2022/08/05 12:11:20;;;;;;;9.27;6.03;;;;;;;;;;5081122;28;20829;-70
2022/08/05 12:13:56;;;;;;;6.07;5.33;;;;;;;;;;5077417;28;20491;-70
2022/08/05 12:16:24;;;;;;;7.47;5.93;;;;;;;;;;5093353;28;20522;-69
2022/08/05 12:18:52;;;;;;;9.03;5.57;;;;;;;;;;5092106;28;20535;-69
2022/08/05 12:21:24;;;;;;;7.33;4.40;;;;;;;;;;5093457;28;20462;-71
2022/08/05 12:24:02;;;;;;;9.57;5.17;;;;;;;;;;5092299;28;20460;-71
2022/08/05 12:26:33;;;;;;;8.03;4.80;;;;;;;;;;5091735;28;20444;-70
2022/08/05 12:29:00;;;;;;;9.30;5.30;;;;;;;;;;5092113;28;20466;-71
2022/08/05 12:31:27;;;;;;;7.53;5.80;;;;;;;;;;5086840;28;20452;-70
2022/08/05 12:33:56;;;;;;;6.50;5.50;;;;;;;;;;5098666;28;20573;-71
2022/08/05 12:36:23;;;;;;;7.90;5.53;;;;;;;;;;5072191;28;20475;-70
2022/08/05 12:38:50;;;;;;;7.70;5.63;;;;;;;;;;5071750;28;20456;-69
2022/08/05 12:41:20;;;;;;;7.83;5.17;;;;;;;;;;5072592;28;20498;-70
2022/08/05 12:43:53;;;;;;;9.27;5.37;;;;;;;;;;5089604;28;21003;-68
2022/08/05 12:46:21;;;;;;;7.93;5.73;;;;;;;;;;5092257;28;20458;-71
2022/08/05 12:48:48;;;;;;;6.17;5.40;;;;;;;;;;5107890;27;20463;-71
2022/08/05 12:51:17;;;;;;;19.33;12.83;;;;;;;;;;5091483;28;20982;-69
2022/08/05 12:53:47;;;;;;;16.23;11.70;;;;;;;;;;5084209;28;20516;-71
2022/08/05 12:56:24;;;;;;;8.33;5.30;;;;;;;;;;5072536;28;20472;-70
2022/08/05 12:59:09;;;;;;;8.63;4.17;;;;;;;;;;5072824;28;20456;-69
2022/08/05 13:01:36;;;;;;;7.10;4.00;;;;;;;;;;5071921;28;20483;-69
2022/08/05 13:04:06;;;;;;;7.47;4.20;;;;;;;;;;5071568;28;20451;-69
2022/08/05 13:06:33;;;;;;;6.20;4.57;;;;;;;;;;5070617;28;20533;-68
2022/08/05 13:09:07;;;;;;;6.67;4.37;;;;;;;;;;5076368;28;20585;-69
2022/08/05 13:11:43;;;;;;;4.23;3.83;;;;;;;;;;5079167;28;20546;-70
2022/08/05 13:14:19;;;;;;;4.30;3.63;;;;;;;;;;5082284;27;20908;-69
2022/08/05 13:16:53;;;;;;;5.90;3.70;;;;;;;;;;5071763;28;20506;-70
2022/08/05 13:19:25;;;;;;;5.83;4.17;;;;;;;;;;5089370;28;20475;-70
2022/08/05 13:21:52;;;;;;;5.07;4.17;;;;;;;;;;5090454;28;20466;-70
2022/08/05 13:24:20;;;;;;;5.40;3.67;;;;;;;;;;5083470;28;20472;-70
2022/08/05 13:26:49;;;;;;;4.70;3.97;;;;;;;;;;5073372;28;20452;-70
2022/08/05 13:29:18;;;;;;;5.13;3.93;;;;;;;;;;5072084;28;20448;-70
2022/08/05 13:31:46;;;;;;;5.37;4.30;;;;;;;;;;5108416;27;20527;-70
2022/08/05 13:34:13;;;;;;;5.17;4.03;;;;;;;;;;5115266;27;20547;-69
2022/08/05 13:36:46;;;;;;;7.20;4.67;;;;;;;;;;5104087;27;20474;-70
2022/08/05 13:39:13;;;;;;;5.90;3.93;;;;;;;;;;5096435;28;20475;-70
2022/08/05 13:41:43;;;;;;;5.00;4.50;;;;;;;;;;5079458;28;20882;-69
2022/08/05 13:44:15;;;;;;;6.00;4.27;;;;;;;;;;5086125;28;20464;-69
2022/08/05 13:46:42;;;;;;;6.00;4.20;;;;;;;;;;5094311;28;20481;-69
2022/08/05 13:49:12;;;;;;;5.00;3.70;;;;;;;;;;5093870;28;20462;-69
2022/08/05 13:51:42;;;;;;;6.60;3.80;;;;;;;;;;5087027;28;20460;-70
2022/08/05 13:54:09;;;;;;;5.60;3.37;;;;;;;;;;5075174;28;20567;-70
2022/08/05 13:56:36;;;;;;;6.07;2.60;;;;;;;;;;5075298;28;20488;-69
2022/08/05 13:59:03;;;;;;;3.63;2.50;;;;;;;;;;5074946;28;20549;-68
2022/08/05 14:01:31;;;;;;;4.40;2.40;;;;;;;;;;5072672;28;20463;-71
2022/08/05 14:06:43;;;;;;;6.87;3.50;;;;;;;;;;5089235;28;20548;-70
2022/08/05 14:09:10;;;;;;;4.03;2.67;;;;;;;;;;5108014;28;20449;-70
2022/08/05 14:11:40;;;;;;;4.10;2.37;;;;;;;;;;5086051;28;20491;-70
2022/08/05 14:14:07;;;;;;;3.73;2.70;;;;;;;;;;5087323;28;20506;-70
2022/08/05 14:16:36;;;;;;;3.37;2.37;;;;;;;;;;5081417;28;20483;-70
2022/08/05 14:19:07;;;;;;;3.40;2.83;;;;;;;;;;5076910;28;20570;-71
2022/08/05 14:21:37;;;;;;;5.57;2.97;;;;;;;;;;5091252;28;20735;-71
2022/08/05 14:24:19;;;;;;;3.80;3.00;;;;;;;;;;5093371;28;20565;-71
2022/08/05 14:26:50;;;;;;;3.53;2.53;;;;;;;;;;5075434;28;20588;-70
2022/08/05 14:29:17;;;;;;;4.70;2.80;;;;;;;;;;5074008;28;20548;-70
2022/08/05 14:31:54;;;;;;;4.80;3.37;;;;;;;;;;5079367;28;20493;-69
2022/08/05 14:34:22;;;;;;;4.47;3.47;;;;;;;;;;5086892;28;20911;-69
2022/08/05 14:36:52;;;;;;;2.77;2.23;;;;;;;;;;5093584;28;20467;-69
2022/08/05 14:39:23;;;;;;;3.70;2.80;;;;;;;;;;5092125;28;20530;-71
2022/08/05 14:41:54;;;;;;;4.70;2.73;;;;;;;;;;5089062;28;20451;-69
2022/08/05 14:44:21;;;;;;;3.97;2.43;;;;;;;;;;5091258;28;20532;-69
2022/08/05 14:46:48;;;;;;;3.70;2.30;;;;;;;;;;5089449;28;20487;-69
2022/08/05 14:49:15;;;;;;;2.93;1.90;;;;;;;;;;5092125;28;20924;-69
2022/08/05 14:51:43;;;;;;;4.30;2.57;;;;;;;;;;5091216;28;20546;-71
2022/08/05 14:54:11;;;;;;;2.83;1.97;;;;;;;;;;5092736;28;20515;-70
2022/08/05 14:56:39;;;;;;;4.00;2.00;;;;;;;;;;5091379;28;21136;-70